Lynn Lake Airport
CYYL : rendu visible

Aérodrome :











RETROUVEZ-NOUS SUR...

 
LOGIN :

S'inscrire | Disclaimer

   EN    FR    IT 

 









Légende :    VFR   VFR Marginal   IFR   IFR Intensif   IFR Très Intensif
Visi : 
Plafond : 
>= 8 km
>= 3000ft
5 à 8 km
1000 à 3000 ft
1500m à 5 km
500 à 1000 ft
800 à 1500m
200 à 500 ft
< 800m
< 200 ft
Symboles :   Orages  Brouillard  Fortes neiges  Fortes précipitations  Vent > 20 kt






- Altitude de l'aérodrome : 1170 ft
- Code IATA : YYL


CYYL - Lynn Lake

DERNIER METAR :
  • 201200Z AUTO 31010KT 9SM -SN BKN013 OVC042 M15/M17 A3002 RMK SLP203

METARs EXPIRÉS :
  • 201148Z AUTO 31009KT 9SM -SN BKN013 OVC042 M15/M17 A3002 RMK SLP201
  • 201100Z AUTO 30009G17KT 9SM -SN SCT013 OVC042 M15/M17 A3001 RMK SLP198
  • 201000Z AUTO 30008KT 9SM -SN BKN015 OVC041 M15/M16 A2999 RMK SLP192

TAF TAF CYYL
Valide du 20 à 07h jusqu'au 20 à 19h UTC


200642Z 2007/2019 32010KT 4SM -SN OVC012
TEMPO 2007/2019 P6SM NSW OVC025 RMK FCST BASED ON AUTO OBS. NXT FCST BY 201300Z



MET'MAP, la Météo Aéronautique d'un coup d'oeil ! - Copyright ORBIFLY Décembre 2007 - Disclaimer

ORBIFLY MET'MAP TEAM :

Programmation & Développement : Alexandra Zaïnal
Conception & Développement : Baudouin d'Aumeries
Co-Programmation & Développement : Marc-Olivier Méhu
Soutien technique & logistique : Manuel Goepfert

Contact : metmap@orbifly.com




SOURCES & CREDITS :

   NOAA       Earth
Advisory